Flight Track Log - Related Links

Times and Time Zones

All times are in EDT time to prevent confusion due to time zone crossing. See the N774AN flight status page for this flight to view local times or setup timezone preferences in your user account.

Time Position Orientation Groundspeed Altitude Reporting Facility
EDT Latitude Longitude Course Direction KTS MPH feet Rate Location/Type
Sat 02:18:52 PM 51.4780 -0.4830 270° West 175 201 500  Level FlightAware ADS-B
Sat 02:19:18 PM 51.4783 -0.5228 271° West 169 194 1,900 3,097 Climbing FlightAware ADS-B
Sat 02:19:23 PM 51.4780 -0.5297 266° West 166 191 2,100 2,400 Climbing FlightAware ADS-B
Sat 02:19:28 PM 51.4774 -0.5355 261° West 165 190 2,300 2,000 Climbing FlightAware ADS-B
Sat 02:19:35 PM 51.4761 -0.5426 254° West 161 185 2,500 1,636 Climbing FlightAware ADS-B
Sat 02:19:39 PM 51.4748 -0.5479 249° West 159 183 2,600 2,250 Climbing FlightAware ADS-B
Sat 02:19:43 PM 51.4739 -0.5523 252° West 160 184 2,800 1,800 Climbing FlightAware ADS-B
Sat 02:19:49 PM 51.4725 -0.5593 252° West 160 184 2,900 1,333 Climbing FlightAware ADS-B
Sat 02:20:01 PM 51.4697 -0.5724 251° West 164 189 3,200 1,333 Climbing FlightAware ADS-B
Sat 02:20:07 PM 51.4682 -0.5798 252° West 170 196 3,300 600 Climbing FlightAware ADS-B
Sat 02:20:11 PM 51.4673 -0.5848 254° West 177 204 3,300 400 Level FlightAware ADS-B
Sat 02:20:22 PM 51.4648 -0.5995 255° West 192 221 3,400 500 Climbing FlightAware ADS-B
Sat 02:20:35 PM 51.4622 -0.6175 257° West 209 241 3,500 1,091 Climbing FlightAware ADS-B
Sat 02:20:44 PM 51.4601 -0.6318 257° West 213 245 3,800 1,800 Climbing FlightAware ADS-B
Sat 02:20:55 PM 51.4579 -0.6480 258° West 214 246 4,100 1,826 Climbing FlightAware ADS-B
Sat 02:21:07 PM 51.4557 -0.6673 260° West 219 252 4,500 1,875 Climbing FlightAware ADS-B
Sat 02:21:11 PM 51.4553 -0.6738 264° West 224 258 4,600 750 Climbing FlightAware ADS-B
Sat 02:21:15 PM 51.4548 -0.6813 264° West 231 266 4,600 1,286 Level FlightAware ADS-B
Sat 02:21:25 PM 51.4544 -0.6986 268° West 235 270 4,900 2,087 Climbing FlightAware ADS-B
Sat 02:21:38 PM 51.4543 -0.7202 270° West 236 272 5,400 2,077 Climbing FlightAware ADS-B
Sat 02:21:51 PM 51.4543 -0.7429 270° West 239 275 5,800 1,862 Climbing FlightAware ADS-B
Sat 02:22:07 PM 51.4542 -0.7728 270° West 244 281 6,300 2,063 Climbing FlightAware ADS-B
Sat 02:22:23 PM 51.4541 -0.8006 270° West 247 284 6,900 2,200 Climbing FlightAware ADS-B
Sat 02:22:37 PM 51.4537 -0.8258 269° West 247 284 7,400 2,308 Climbing FlightAware ADS-B
Sat 02:22:49 PM 51.4533 -0.8477 268° West 246 283 7,900 2,526 Climbing FlightAware ADS-B
Sat 02:22:56 PM 51.4531 -0.8622 269° West 245 282 8,200 2,308 Climbing FlightAware ADS-B
Sat 02:23:02 PM 51.4533 -0.8713 272° West 245 282 8,400 2,000 Climbing FlightAware ADS-B
Sat 02:23:08 PM 51.4540 -0.8824 276° West 246 283 8,600 2,000 Climbing FlightAware ADS-B
Sat 02:23:11 PM 51.4549 -0.8883 284° West 248 285 8,700 1,714 Climbing FlightAware ADS-B
Sat 02:23:15 PM 51.4563 -0.8954 288° West 250 288 8,800 1,800 Climbing FlightAware ADS-B
Sat 02:23:21 PM 51.4594 -0.9059 295° West 254 292 9,000 2,000 Climbing FlightAware ADS-B
Sat 02:23:36 PM 51.4670 -0.9316 295° West 254 292 9,500 2,154 Climbing FlightAware ADS-B
Sat 02:24:00 PM 51.4776 -0.9722 293° West 255 293 10,400 2,267 Climbing FlightAware ADS-B
Sat 02:24:21 PM 51.4887 -1.0081 296° West 258 297 11,200 -158 Climbing FlightAware ADS-B
Sat 02:24:38 PM 51.4969 -1.0378 296° West 300 345 10,300 2,516 Descending FlightAware UK
Sat 02:24:52 PM 51.5027 -1.0631 296° West 263 303 12,500 2,000 Climbing FlightAware ADS-B
Sat 02:25:08 PM 51.5098 -1.0929 296° West 318 366 11,300 1,125 Descending FlightAware UK
Sat 02:25:24 PM 51.5172 -1.1266 296° West 302 348 13,100 1,000 Climbing FlightAware ADS-B
Sat 02:25:44 PM 51.5269 -1.1703 296° West 362 417 11,900 1,200 Descending FlightAware UK
Sat 02:25:54 PM 51.5321 -1.1948 296° West 335 386 13,700 2,800 Climbing FlightAware ADS-B
Sat 02:26:14 PM 51.5421 -1.2405 296° West 372 428 13,300 3,097 Descending FlightAware UK
Sat 02:26:25 PM 51.5476 -1.2662 296° West 336 387 15,300 2,600 Climbing FlightAware ADS-B
Sat 02:26:44 PM 51.5574 -1.3112 296° West 378 435 14,600 2,710 Descending FlightAware UK
Sat 02:26:56 PM 51.5635 -1.3398 296° West 345 397 16,700 2,600 Climbing FlightAware ADS-B
Sat 02:27:14 PM 51.5729 -1.3833 296° West 388 447 15,900 2,516 Descending FlightAware UK
Sat 02:27:27 PM 51.5802 -1.4172 296° West 351 404 18,000 2,800 Climbing FlightAware ADS-B
Sat 02:27:44 PM 51.5889 -1.4574 296° West 400 460 17,300 2,903 Descending FlightAware UK
Sat 02:27:58 PM 51.5963 -1.4919 296° West 351 404 19,500 2,400 Climbing FlightAware ADS-B
Sat 02:28:14 PM 51.6048 -1.5314 296° West 402 463 18,500 2,323 Descending FlightAware UK
Sat 02:28:29 PM 51.6129 -1.5691 296° West 360 414 20,700 2,200 Climbing FlightAware ADS-B
Sat 02:28:44 PM 51.6211 -1.6073 296° West 408 470 19,600 2,000 Descending FlightAware UK
Sat 02:28:59 PM 51.6297 -1.6468 296° West 369 425 21,700 2,229 Climbing FlightAware ADS-B
Sat 02:29:19 PM 51.6410 -1.7002 296° West 416 479 20,900 2,200 Descending FlightAware UK
Sat 02:29:29 PM 51.6464 -1.7257 296° West 376 433 22,800 1,920 Climbing FlightAware ADS-B
Sat 02:29:44 PM 51.6547 -1.7642 296° West 424 488 21,700 2,200 Descending FlightAware UK
Sat 02:29:59 PM 51.6635 -1.8056 296° West 378 435 23,900 2,400 Climbing FlightAware ADS-B
Sat 02:30:14 PM 51.6716 -1.8441 296° West 428 493 22,900 1,935 Descending FlightAware UK
Sat 02:30:30 PM 51.6807 -1.8871 296° West 385 443 24,900 1,714 Climbing FlightAware ADS-B
Sat 02:30:49 PM 51.6921 -1.9412 296° West 438 504 23,900 1,800 Descending FlightAware UK
Sat 02:31:00 PM 51.6984 -1.9711 296° West 392 451 25,800 2,000 Climbing FlightAware ADS-B
Sat 02:31:19 PM 51.7096 -2.0241 296° West 446 513 24,900 1,818 Descending FlightAware UK
Sat 02:31:33 PM 51.7177 -2.0626 296° West 397 457 26,800 2,000 Climbing FlightAware ADS-B
Sat 02:31:49 PM 51.7271 -2.1071 296° West 454 522 25,900 2,129 Descending FlightAware UK
Sat 02:32:04 PM 51.7356 -2.1481 296° West 397 457 27,900 1,800 Climbing FlightAware ADS-B
Sat 02:32:19 PM 51.7446 -2.1910 296° West 458 527 26,800 1,800 Descending FlightAware UK
Sat 02:32:34 PM 51.7533 -2.2331 296° West 397 457 28,800 1,800 Climbing FlightAware ADS-B
Sat 02:32:49 PM 51.7620 -2.2751 296° West 462 532 27,700 1,548 Descending FlightAware UK
Sat 02:33:05 PM 51.7715 -2.3208 296° West 401 461 29,600 1,333 Climbing FlightAware ADS-B
Sat 02:33:25 PM 51.7830 -2.3767 296° West 466 536 28,500 1,161 Descending FlightAware UK
Sat 02:33:36 PM 51.7896 -2.4087 296° West 405 466 30,200 1,000 Climbing FlightAware ADS-B
Sat 02:33:55 PM 51.8007 -2.4626 296° West 468 539 29,000 1,125 Descending FlightAware UK
Sat 02:34:08 PM 51.8082 -2.4995 296° West 410 472 30,800 600 Climbing FlightAware ADS-B
Sat 02:34:25 PM 51.8180 -2.5501 296° West 478 550 29,300 400 Descending FlightAware UK
Sat 02:34:38 PM 51.8237 -2.5900 296° West 422 486 31,000 600 Climbing FlightAware ADS-B
Sat 02:34:55 PM 51.8312 -2.6421 296° West 488 562 29,600 1,000 Descending FlightAware UK
Sat 02:35:08 PM 51.8367 -2.6830 296° West 427 491 31,500 1,600 Climbing FlightAware ADS-B
Sat 02:35:25 PM 51.8438 -2.7346 296° West 496 571 30,400 968 Descending FlightAware UK
Sat 02:35:39 PM 51.8495 -2.7779 296° West 424 488 32,000  Climbing FlightAware ADS-B
Sat 02:35:55 PM 51.8562 -2.8281 296° West 490 564 30,400  Descending FlightAware UK
Sat 02:36:09 PM 51.8617 -2.8690 296° West 416 479 32,000 200 Climbing FlightAware ADS-B
Sat 02:36:25 PM 51.8684 -2.9183 296° West 494 568 30,500  Descending FlightAware UK
Sat 02:36:39 PM 51.8739 -2.9604 296° West 416 479 32,000  Climbing FlightAware ADS-B
Sat 02:36:55 PM 51.8802 -3.0087 296° West 492 566 30,500 -2,647 Descending FlightAware UK
Sat 02:37:13 PM 51.8874 -3.0627 282° West 490 564 30,500 3,462 Level FlightAware UK
Sat 02:37:21 PM 51.8904 -3.0859 282° West 410 472 32,000  Climbing FlightAware ADS-B
Sat 02:37:37 PM 51.8967 -3.1345 282° West 488 562 30,500  Descending FlightAware UK
Sat 02:37:51 PM 51.9021 -3.1755 282° West 409 471 32,000  Climbing FlightAware ADS-B
Sat 02:38:07 PM 51.9084 -3.2240 282° West 488 562 30,500  Descending FlightAware UK
Sat 02:38:26 PM 51.9157 -3.2804 282° West 408 470 32,000 -167 Climbing FlightAware ADS-B
Sat 02:38:43 PM 51.9222 -3.3306 282° West 486 559 30,400  Descending FlightAware UK
Sat 02:38:57 PM 51.9260 -3.3570 282° West 406 467 32,000 3,429 Climbing FlightAware ADS-B
Sat 02:39:11 PM 51.9332 -3.4151 281° West 407 468 32,000 -2,647 Level FlightAware ADS-B
Sat 02:39:31 PM 51.9407 -3.4731 281° West 484 557 30,500 -2,368 Descending FlightAware UK
Sat 02:39:49 PM 51.9475 -3.5265 282° West 484 557 30,500 -167 Level FlightAware UK
Sat 02:40:07 PM 51.9543 -3.5799 282° West 482 555 30,400 3,214 Descending FlightAware UK
Sat 02:40:17 PM 51.9570 -3.6040 282° West 405 466 32,000  Climbing FlightAware ADS-B
Sat 02:40:37 PM 51.9655 -3.6687 282° West 484 557 30,400 -2,526 Descending FlightAware UK
Sat 02:40:55 PM 51.9722 -3.7221 282° West 482 555 30,400 3,840 Level FlightAware UK
Sat 02:41:02 PM 51.9740 -3.7360 282° West 406 467 32,000 250 Climbing FlightAware ADS-B
Sat 02:41:19 PM 51.9811 -3.7934 282° West 482 555 30,500  Descending FlightAware UK
Sat 02:41:42 PM 51.9890 -3.8550 282° West 406 467 32,000  Climbing FlightAware ADS-B
Sat 02:42:00 PM 51.9967 -3.9178 282° West 484 557 30,500 -2,500 Descending FlightAware UK
Sat 02:42:18 PM 52.0034 -3.9714 282° West 484 557 30,500 3,333 Level FlightAware UK
Sat 02:42:27 PM 52.0060 -3.9920 282° West 405 466 32,000  Climbing FlightAware ADS-B
Sat 02:42:42 PM 52.0122 -4.0429 282° West 484 557 30,500 -2,647 Descending FlightAware UK
Sat 02:43:01 PM 52.0187 -4.0971 281° West 484 557 30,500 3,600 Level FlightAware UK
Sat 02:43:07 PM 52.0200 -4.1110 281° West 405 466 32,000  Climbing FlightAware ADS-B
Sat 02:43:24 PM 52.0274 -4.1680 281° West 484 557 30,500 -2,571 Descending FlightAware UK
Sat 02:43:42 PM 52.0339 -4.2215 281° West 484 557 30,500 3,913 Level FlightAware UK
Sat 02:43:47 PM 52.0350 -4.2310 281° West 405 466 32,000  Climbing FlightAware ADS-B
Sat 02:44:06 PM 52.0425 -4.2931 281° West 484 557 30,500 -2,432 Descending FlightAware UK
Sat 02:44:24 PM 52.0489 -4.3467 281° West 484 557 30,500 3,462 Level FlightAware UK
Sat 02:44:32 PM 52.0510 -4.3610 281° West 406 467 32,000  Climbing FlightAware ADS-B
Sat 02:44:48 PM 52.0575 -4.4183 281° West 484 557 30,500 -2,647 Descending FlightAware UK
Sat 02:45:06 PM 52.0639 -4.4721 281° West 484 557 30,500 3,750 Level FlightAware UK
Sat 02:45:12 PM 52.0650 -4.4810 281° West 406 467 32,000 -250 Climbing FlightAware ADS-B
Sat 02:45:30 PM 52.0731 -4.5436 281° West 482 555 30,400 -2,500 Descending FlightAware UK
Sat 02:45:48 PM 52.0833 -4.5967 287° West 484 557 30,500 4,364 Climbing FlightAware UK
Sat 02:45:52 PM 52.0840 -4.5990 287° West 411 473 32,000  Climbing FlightAware ADS-B
Sat 02:46:12 PM 52.0983 -4.6670 287° West 486 559 30,500 -2,368 Descending FlightAware UK
Sat 02:46:30 PM 52.1109 -4.7192 292° West 486 559 30,500 3,600 Level FlightAware UK
Sat 02:46:37 PM 52.1140 -4.7340 292° West 416 479 32,000  Climbing FlightAware ADS-B
Sat 02:46:54 PM 52.1272 -4.7894 292° West 486 559 30,500 -2,571 Descending FlightAware UK
Sat 02:47:12 PM 52.1392 -4.8422 290° West 488 562 30,500 3,214 Level FlightAware UK
Sat 02:47:22 PM 52.1440 -4.8620 290° West 418 481 32,000  Climbing FlightAware ADS-B
Sat 02:47:42 PM 52.1596 -4.9305 290° West 488 562 30,500 -2,368 Descending FlightAware UK
Sat 02:48:00 PM 52.1720 -4.9836 291° West 488 562 30,500 4,500 Level FlightAware UK
Sat 02:48:02 PM 52.1720 -4.9810 291° West 420 483 32,000  Climbing FlightAware ADS-B
Sat 02:48:18 PM 52.1845 -5.0367 291° West 490 564 30,500 -2,647 Descending FlightAware UK
Sat 02:48:36 PM 52.1970 -5.0900 291° West 490 564 30,500 3,750 Level FlightAware UK
Sat 02:48:42 PM 52.1990 -5.0990 291° West 423 487 32,000  Climbing FlightAware ADS-B
Sat 02:49:00 PM 52.2135 -5.1613 291° West 490 564 30,500 -2,500 Descending FlightAware UK
Sat 02:49:18 PM 52.2260 -5.2151 291° West 490 564 30,500 3,333 Level FlightAware UK
Sat 02:49:27 PM 52.2310 -5.2360 291° West 424 488 32,000  Climbing FlightAware ADS-B
Sat 02:49:42 PM 52.2427 -5.2870 291° West 490 564 30,500 -2,727 Descending FlightAware UK
Sat 02:50:00 PM 52.2551 -5.3409 291° West 490 564 30,500 3,600 Level FlightAware UK
Sat 02:50:07 PM 52.2570 -5.3480 291° West 426 490 32,000  Climbing FlightAware ADS-B
Sat 02:50:24 PM 52.2718 -5.4125 291° West 492 566 30,500 -2,571 Descending FlightAware UK
Sat 02:50:42 PM 52.2842 -5.4667 291° West 492 566 30,500 3,913 Level FlightAware UK
Sat 02:50:47 PM 52.2860 -5.4770 291° West 427 491 32,000  Climbing FlightAware ADS-B
Sat 02:51:06 PM 52.3008 -5.5390 291° West 492 566 30,500 -2,432 Descending FlightAware UK
Sat 02:51:24 PM 52.3132 -5.5933 290° West 492 566 30,500 3,462 Level FlightAware UK
Sat 02:51:32 PM 52.3170 -5.6120 290° West 427 491 32,000  Climbing FlightAware ADS-B
Sat 02:51:48 PM 52.3296 -5.6659 290° West 492 566 30,500 -2,647 Descending FlightAware UK
Sat 02:52:06 PM 52.3418 -5.7203 290° West 492 566 30,500 3,750 Level FlightAware UK
Sat 02:52:12 PM 52.3450 -5.7330 290° West 428 493 32,000  Climbing FlightAware ADS-B
Sat 02:52:30 PM 52.3582 -5.7931 290° West 492 566 30,500 -2,500 Descending FlightAware UK
Sat 02:52:48 PM 52.3704 -5.8477 290° West 494 568 30,500 3,333 Level FlightAware UK
Sat 02:52:57 PM 52.3750 -5.8680 290° West 429 494 32,000  Climbing FlightAware ADS-B
Sat 02:53:12 PM 52.3867 -5.9206 290° West 492 566 30,500 -2,727 Descending FlightAware UK
Sat 02:53:30 PM 52.3990 -5.9754 290° West 492 566 30,500 3,600 Level FlightAware UK
Sat 02:53:37 PM 52.4020 -5.9900 290° West 429 494 32,000  Climbing FlightAware ADS-B
Sat 02:53:54 PM 52.4152 -6.0480 290° West 492 566 30,500 -2,571 Descending FlightAware UK
Sat 02:54:12 PM 52.4275 -6.1028 290° West 492 566 30,500 3,913 Level FlightAware UK
Sat 02:54:17 PM 52.4290 -6.1110 290° West 428 493 32,000 -250 Climbing FlightAware ADS-B
Sat 02:54:36 PM 52.4437 -6.1760 290° West 490 564 30,400 -2,595 Descending FlightAware UK
Sat 02:54:54 PM 52.4557 -6.2309 290° West 492 566 30,400 3,692 Level FlightAware UK
Sat 02:55:02 PM 52.4600 -6.2520 290° West 428 493 32,000  Climbing FlightAware ADS-B
Sat 02:55:18 PM 52.4718 -6.3040 290° West 492 566 30,400 -2,824 Descending FlightAware UK
Sat 02:55:36 PM 52.4838 -6.3589 290° West 492 566 30,400 4,000 Level FlightAware UK
Sat 02:55:42 PM 52.4870 -6.3730 290° West 428 493 32,000  Climbing FlightAware ADS-B
Sat 02:56:00 PM 52.4998 -6.4320 290° West 490 564 30,400 -2,667 Descending FlightAware UK
Sat 02:56:18 PM 52.5118 -6.4868 290° West 490 564 30,400 3,556 Level FlightAware UK
Sat 02:56:27 PM 52.5160 -6.5070 290° West 427 491 32,000  Climbing FlightAware ADS-B
Sat 02:56:42 PM 52.5276 -6.5600 290° West 490 564 30,400 -2,727 Descending FlightAware UK
Sat 02:57:00 PM 52.5396 -6.6148 290° West 490 564 30,500 3,840 Climbing FlightAware UK
Sat 02:57:07 PM 52.5430 -6.6310 290° West 428 493 32,000  Climbing FlightAware ADS-B
Sat 02:57:24 PM 52.5554 -6.6882 290° West 488 562 30,500 -2,571 Descending FlightAware UK
Sat 02:57:42 PM 52.5672 -6.7434 289° West 488 562 30,500 3,913 Level FlightAware UK
Sat 02:57:47 PM 52.5690 -6.7520 289° West 430 495 32,000  Climbing FlightAware ADS-B
Sat 02:58:06 PM 52.5831 -6.8172 289° West 488 562 30,500 -2,595 Descending FlightAware UK
Sat 02:58:24 PM 52.5949 -6.8725 289° West 488 562 30,400 3,462 Descending FlightAware UK
Sat 02:58:32 PM 52.5990 -6.8930 289° West 429 494 32,000  Climbing FlightAware ADS-B
Sat 02:58:48 PM 52.6107 -6.9465 289° West 492 566 30,400 -2,824 Descending FlightAware UK
Sat 02:59:06 PM 52.6225 -7.0018 289° West 488 562 30,400 4,000 Level FlightAware UK
Sat 02:59:12 PM 52.6240 -7.0100 289° West 426 490 32,000  Climbing FlightAware ADS-B
Sat 02:59:30 PM 52.6381 -7.0752 289° West 486 559 30,400 -2,500 Descending FlightAware UK
Sat 02:59:48 PM 52.6498 -7.1302 289° West 486 559 30,500 3,556 Climbing FlightAware UK
Sat 02:59:57 PM 52.6540 -7.1530 289° West 426 490 32,000  Climbing FlightAware ADS-B
Sat 03:00:12 PM 52.6651 -7.2034 289° West 484 557 30,500 -2,727 Descending FlightAware UK
Sat 03:00:30 PM 52.6765 -7.2579 289° West 486 559 30,500 3,600 Level FlightAware UK
Sat 03:00:37 PM 52.6800 -7.2730 289° West 428 493 32,000  Climbing FlightAware ADS-B
Sat 03:00:54 PM 52.6918 -7.3314 289° West 488 562 30,500 -2,571 Descending FlightAware UK
Sat 03:01:12 PM 52.7033 -7.3868 289° West 488 562 30,500 3,214 Level FlightAware UK
Sat 03:01:22 PM 52.7090 -7.4150 289° West 430 495 32,000  Climbing FlightAware ADS-B
Sat 03:01:42 PM 52.7226 -7.4795 289° West 486 559 30,500  Descending FlightAware UK
Sat 03:01:57 PM 52.7300 -7.5140 289° West 431 496 32,000  Climbing FlightAware ADS-B
Sat 03:02:12 PM 52.7419 -7.5727 289° West 486 559 30,500 -2,727 Descending FlightAware UK
Sat 03:02:30 PM 52.7535 -7.6288 289° West 486 559 30,500 3,000 Level FlightAware UK
Sat 03:02:42 PM 52.7580 -7.6520 289° West 432 497 32,000  Climbing FlightAware ADS-B
Sat 03:03:00 PM 52.7727 -7.7226 289° West 488 562 30,500 -2,500 Descending FlightAware UK
Sat 03:03:18 PM 52.7843 -7.7791 289° West 490 564 30,500 3,333 Level FlightAware UK
Sat 03:03:27 PM 52.7880 -7.7950 289° West 437 503 32,000  Climbing FlightAware ADS-B
Sat 03:03:42 PM 52.7997 -7.8547 289° West 492 566 30,500 -2,727 Descending FlightAware UK
Sat 03:04:00 PM 52.8112 -7.9115 289° West 494 568 30,500 3,600 Level FlightAware UK
Sat 03:04:07 PM 52.8130 -7.9200 289° West 436 502 32,000  Climbing FlightAware ADS-B
Sat 03:04:24 PM 52.8266 -7.9873 289° West 494 568 30,500 -2,571 Descending FlightAware UK
Sat 03:04:42 PM 52.8381 -8.0443 289° West 492 566 30,500 3,214 Level FlightAware UK
Sat 03:04:52 PM 52.8420 -8.0640 289° West 437 503 32,000  Climbing FlightAware ADS-B
Sat 03:05:12 PM 52.8572 -8.1394 289° West 492 566 30,500  Descending FlightAware UK
Sat 03:05:32 PM 52.8670 -8.1880 289° West 439 505 32,000  Climbing FlightAware ADS-B
Sat 03:05:48 PM 52.8800 -8.2536 289° West 492 566 30,500 -2,647 Descending FlightAware UK
Sat 03:06:06 PM 52.8915 -8.3111 288° West 492 566 30,500 3,750 Level FlightAware UK
Sat 03:06:12 PM 52.8920 -8.3150 288° West 438 504 32,000  Climbing FlightAware ADS-B
Sat 03:06:30 PM 52.9066 -8.3876 288° West 490 564 30,500 -2,500 Descending FlightAware UK
Sat 03:06:48 PM 52.9178 -8.4444 288° West 492 566 30,500 3,333 Level FlightAware UK
Sat 03:06:57 PM 52.9210 -8.4590 288° West 437 503 32,000  Climbing FlightAware ADS-B
Sat 03:07:12 PM 52.9329 -8.5211 288° West 494 568 30,500 -2,727 Descending FlightAware UK
Sat 03:07:30 PM 52.9442 -8.5787 288° West 492 566 30,500 3,600 Level FlightAware UK
Sat 03:07:37 PM 52.9460 -8.5850 288° West 437 503 32,000  Climbing FlightAware ADS-B
Sat 03:07:54 PM 52.9592 -8.6555 288° West 490 564 30,500 -2,743 Descending FlightAware UK
Sat 03:08:12 PM 52.9706 -8.7130 288° West 490 564 30,400 3,913 Descending FlightAware UK
Sat 03:08:17 PM 52.9710 -8.7170 288° West 435 501 32,000 250 Climbing FlightAware ADS-B
Sat 03:08:36 PM 52.9856 -8.7897 288° West 488 562 30,500  Descending FlightAware UK
Sat 03:08:52 PM 52.9930 -8.8270 288° West 439 505 32,000  Climbing FlightAware ADS-B
Sat 03:09:12 PM 53.0077 -8.9049 288° West 488 562 30,500  Descending FlightAware UK
Sat 03:09:22 PM 53.0110 -8.9240 288° West 438 504 32,000  Climbing FlightAware ADS-B
Sat 03:09:42 PM 53.0260 -9.0008 288° West 488 562 30,500  Descending FlightAware UK
Sat 03:10:02 PM 53.0350 -9.0500 288° West 438 504 32,000 1,385 Climbing FlightAware ADS-B
Sat 03:10:47 PM 53.0630 -9.1950 288° West 437 503 32,000  Level FlightAware ADS-B
Sat 03:11:27 PM 53.0860 -9.3170 287° West 437 503 32,000  Level FlightAware ADS-B
Sat 03:12:12 PM 53.1150 -9.4680 288° West 437 503 32,000  Level FlightAware ADS-B
Sat 03:12:52 PM 53.1380 -9.5960 287° West 436 502 32,000  Level FlightAware ADS-B
Sat 03:13:32 PM 53.1620 -9.7220 288° West 435 501 32,000  Level FlightAware ADS-B
Sat 03:14:17 PM 53.1880 -9.8670 287° West 435 501 32,000  Level FlightAware ADS-B
Sat 03:14:57 PM 53.2120 -9.9950 287° West 433 498 32,000  Level FlightAware ADS-B
Sat 03:15:42 PM 53.2390 -10.1450 287° West 434 499 32,000  Level FlightAware ADS-B
Sat 03:16:22 PM 53.2610 -10.2680 287° West 435 501 32,000  Level FlightAware ADS-B
Sat 03:16:52 PM 53.2790 -10.3670 287° West 434 499 32,000  Level FlightAware ADS-B
Sat 03:17:32 PM 53.3010 -10.4930 286° West 434 499 32,000  Level FlightAware ADS-B
Sat 03:18:12 PM 53.3240 -10.6260 286° West 434 499 32,000  Level FlightAware ADS-B
Sat 03:18:57 PM 53.3490 -10.7700 286° West 435 501 32,000  Level FlightAware ADS-B
Sat 03:19:37 PM 53.3720 -10.8990 287° West 436 502 32,000  Level FlightAware ADS-B
Sat 03:20:17 PM 53.3950 -11.0310 286° West 436 502 32,000  Level FlightAware ADS-B
Sat 03:21:02 PM 53.4200 -11.1780 286° West 436 502 32,000  Level FlightAware ADS-B
Sat 03:21:42 PM 53.4410 -11.3050 286° West 435 501 32,000  Level FlightAware ADS-B
Sat 03:22:27 PM 53.4660 -11.4550 286° West 438 504 32,000  Level FlightAware ADS-B
Sat 03:23:07 PM 53.4880 -11.5860 286° West 437 503 32,000  Level FlightAware ADS-B
Sat 03:23:47 PM 53.5100 -11.7150 286° West 436 502 32,000  Level FlightAware ADS-B
Sat 03:24:32 PM 53.5330 -11.8580 285° West 436 502 32,000  Level FlightAware ADS-B
Sat 03:25:12 PM 53.5540 -11.9890 285° West 435 501 32,000  Level FlightAware ADS-B
Sat 03:25:57 PM 53.5780 -12.1370 285° West 433 498 32,000  Level FlightAware ADS-B
Sat 03:26:37 PM 53.5990 -12.2690 285° West 429 494 32,000  Level FlightAware ADS-B
Sat 03:27:27 PM 53.6240 -12.4240 285° West 428 493 32,000  Level FlightAware ADS-B
Sat 03:28:57 PM 53.6660 -12.6990 285° West 427 491 32,000  Level FlightAware ADS-B
Sat 03:29:37 PM 53.6830 -12.8090 285° West 427 491 32,000  Level FlightAware ADS-B
Sat 03:30:22 PM 53.7120 -12.9920 285° West 422 486 32,000  Level FlightAware ADS-B
Sat 03:30:57 PM 53.7280 -13.0970 284° West 421 484 32,000  Level FlightAware ADS-B
Sat 03:31:42 PM 53.7460 -13.2250 283° West 421 484 32,000  Level FlightAware ADS-B
Sat 03:32:17 PM 53.7680 -13.3590 286° West 420 483 32,000  Level FlightAware ADS-B
Sat 03:33:07 PM 53.7890 -13.5070 284° West 419 482 32,000  Level FlightAware ADS-B
Sat 03:33:47 PM 53.8050 -13.6150 284° West 419 482 32,000  Level FlightAware ADS-B
Sat 03:34:27 PM 53.8210 -13.7230 284° West 419 482 32,000  Level FlightAware ADS-B
Sat 03:35:07 PM 53.8370 -13.8320 284° West 419 482 32,000  Level FlightAware ADS-B
Sat 03:35:57 PM 53.8570 -13.9670 284° West 419 482 32,000  Level FlightAware ADS-B
Sat 03:36:37 PM 53.8730 -14.0760 284° West 419 482 32,000  Level FlightAware ADS-B
Sat 03:37:17 PM 53.8890 -14.1840 284° West 419 482 32,000  Level FlightAware ADS-B
Sat 03:37:57 PM 53.9050 -14.2930 284° West 419 482 32,000  Level FlightAware ADS-B
Sat 03:38:47 PM 53.9250 -14.4290 284° West 419 482 32,000  Level FlightAware ADS-B
Sat 03:39:27 PM 53.9410 -14.5370 284° West 419 482 32,000  Level FlightAware ADS-B
Sat 03:40:07 PM 53.9570 -14.6460 284° West 419 482 32,000  Level FlightAware ADS-B
Sat 03:40:47 PM 53.9730 -14.7550 284° West 419 482 32,000  Level FlightAware ADS-B
Sat 03:41:37 PM 53.9930 -14.8910 284° West 419 482 32,000  Level FlightAware ADS-B
Sat 03:42:17 PM 54.0080 -14.9990 283° West 419 482 32,000  Level FlightAware ADS-B
Sat 03:44:00 PM 54.0439 -15.3323 281° West  Level FlightAware Approximate
Sat 03:45:00 PM 54.0643 -15.5268 280° West  Level FlightAware Approximate
Sat 03:46:00 PM 54.0845 -15.7214 280° West  Level FlightAware Approximate
Sat 03:47:00 PM 54.1043 -15.9162 280° West  Level FlightAware Approximate
Sat 03:48:00 PM 54.1239 -16.1112 280° West  Level FlightAware Approximate
Sat 03:49:00 PM 54.1431 -16.3064 280° West  Level FlightAware Approximate
Sat 03:50:00 PM 54.1620 -16.5017 279° West  Level FlightAware Approximate
Sat 03:51:00 PM 54.1806 -16.6973 279° West  Level FlightAware Approximate
Sat 03:52:00 PM 54.1988 -16.8930 279° West  Level FlightAware Approximate
Sat 03:53:00 PM 54.2168 -17.0889 279° West  Level FlightAware Approximate
Sat 03:54:00 PM 54.2344 -17.2849 279° West  Level FlightAware Approximate
Sat 03:55:00 PM 54.2517 -17.4811 279° West  Level FlightAware Approximate
Sat 03:56:00 PM 54.2687 -17.6775 279° West  Level FlightAware Approximate
Sat 03:57:00 PM 54.2854 -17.8741 278° West  Level FlightAware Approximate
Sat 03:58:00 PM 54.3017 -18.0707 278° West  Level FlightAware Approximate
Sat 03:59:00 PM 54.3178 -18.2676 278° West  Level FlightAware Approximate
Sat 04:00:00 PM 54.3335 -18.4646 278° West  Level FlightAware Approximate
Sat 04:01:00 PM 54.3489 -18.6618 278° West  Level FlightAware Approximate
Sat 04:02:00 PM 54.3639 -18.8591 278° West  Level FlightAware Approximate
Sat 04:03:00 PM 54.3787 -19.0565 277° West  Level FlightAware Approximate
Sat 04:04:00 PM 54.3931 -19.2541 277° West  Level FlightAware Approximate
Sat 04:04:23 PM 55.0000 -20.0000 284° West 492 566 32,000  Level ETMS Enhanced Traffic Management System
Sat 04:05:00 PM 54.4071 -19.4523 277° West  Level FlightAware Approximate
Sat 04:06:00 PM 54.4205 -19.6507 277° West  Level FlightAware Approximate
Sat 04:07:00 PM 54.4336 -19.8492 277° West  Level FlightAware Approximate
Sat 04:08:00 PM 54.4464 -20.0478 276° West  Level FlightAware Approximate
Sat 04:09:00 PM 54.4588 -20.2466 276° West  Level FlightAware Approximate
Sat 04:10:00 PM 55.1922 -21.3948 283° West 492 566 32,000  Level FlightAware Transoceanic
Sat 04:11:00 PM 55.2227 -21.6285 283° West 492 566 32,000  Level FlightAware Transoceanic
Sat 04:12:00 PM 55.2527 -21.8626 283° West 492 566 32,000  Level FlightAware Transoceanic
Sat 04:13:00 PM 55.2823 -22.0971 282° West 492 566 32,000  Level FlightAware Transoceanic
Sat 04:14:00 PM 55.3114 -22.3319 282° West 492 566 32,000  Level FlightAware Transoceanic
Sat 04:15:00 PM 55.3401 -22.5671 282° West 492 566 32,000  Level FlightAware Transoceanic
Sat 04:16:00 PM 55.3683 -22.8025 282° West 492 566 32,000  Level FlightAware Transoceanic
Sat 04:17:00 PM 55.3961 -23.0384 282° West 492 566 32,000  Level FlightAware Transoceanic
Sat 04:18:00 PM 55.4234 -23.2745 281° West 492 566 32,000  Level FlightAware Transoceanic
Sat 04:19:00 PM 55.4503 -23.5110 281° West 492 566 32,000  Level FlightAware Transoceanic
Sat 04:20:00 PM 55.4767 -23.7478 281° West 492 566 32,000  Level FlightAware Transoceanic
Sat 04:21:00 PM 55.5027 -23.9849 281° West 492 566 32,000  Level FlightAware Transoceanic
Sat 04:22:00 PM 55.5282 -24.2223 281° West 492 566 32,000  Level FlightAware Transoceanic
Sat 04:23:00 PM 55.5532 -24.4600 280° West 492 566 32,000  Level FlightAware Transoceanic
Sat 04:24:00 PM 55.5778 -24.6980 280° West 492 566 32,000  Level FlightAware Transoceanic
Sat 04:25:00 PM 55.6019 -24.9363 280° West 492 566 32,000  Level FlightAware Transoceanic
Sat 04:26:00 PM 55.6255 -25.1750 280° West 492 566 32,000  Level FlightAware Transoceanic
Sat 04:27:00 PM 55.6487 -25.4139 280° West 492 566 32,000  Level FlightAware Transoceanic
Sat 04:28:00 PM 55.6714 -25.6530 279° West 492 566 32,000  Level FlightAware Transoceanic
Sat 04:29:00 PM 55.6937 -25.8925 279° West 492 566 32,000  Level FlightAware Transoceanic
Sat 04:30:00 PM 55.7155 -26.1322 279° West 492 566 32,000  Level FlightAware Transoceanic
Sat 04:31:00 PM 55.7368 -26.3722 279° West 492 566 32,000  Level FlightAware Transoceanic
Sat 04:32:00 PM 55.7577 -26.6124 279° West 492 566 32,000  Level FlightAware Transoceanic
Sat 04:33:00 PM 55.7780 -26.8529 278° West 492 566 32,000  Level FlightAware Transoceanic
Sat 04:34:00 PM 55.7980 -27.0937 278° West 492 566 32,000  Level FlightAware Transoceanic
Sat 04:35:00 PM 55.8174 -27.3346 278° West 492 566 32,000  Level FlightAware Transoceanic
Sat 04:36:00 PM 55.8364 -27.5759 278° West 492 566 32,000  Level FlightAware Transoceanic
Sat 04:37:00 PM 55.8549 -27.8173 278° West 492 566 32,000  Level FlightAware Transoceanic
Sat 04:38:00 PM 55.8729 -28.0590 277° West 492 566 32,000  Level FlightAware Transoceanic
Sat 04:39:00 PM 55.8905 -28.3009 277° West 492 566 32,000  Level FlightAware Transoceanic
Sat 04:40:00 PM 55.9075 -28.5430 277° West 492 566 32,000  Level FlightAware Transoceanic
Sat 04:41:00 PM 55.9241 -28.7854 277° West 492 566 32,000  Level FlightAware Transoceanic
Sat 04:42:00 PM 55.9403 -29.0279 277° West 492 566 32,000  Level FlightAware Transoceanic
Sat 04:43:00 PM 55.9559 -29.2707 276° West 492 566 32,000  Level FlightAware Transoceanic
Sat 04:44:00 PM 55.9711 -29.5136 276° West 492 566 32,000  Level FlightAware Transoceanic
Sat 04:45:00 PM 55.9858 -29.7567 276° West 492 566 32,000 112 Level FlightAware Transoceanic
Sat 04:46:00 PM 55.9665 -29.9615 261° West  Level Estimated
Sat 04:47:00 PM 55.9469 -30.1662 260° West  Level Estimated
Sat 04:48:00 PM 55.9269 -30.3706 260° West  Level Estimated
Sat 04:49:00 PM 55.9066 -30.5748 260° West  Level Estimated
Sat 04:50:00 PM 55.8859 -30.7788 260° West  Level Estimated
Sat 04:51:00 PM 55.8650 -30.9825 260° West  Level Estimated
Sat 04:52:00 PM 55.8436 -31.1861 260° West  Level Estimated
Sat 04:53:00 PM 55.8220 -31.3894 259° West  Level Estimated
Sat 04:54:00 PM 55.8000 -31.5925 259° West  Level Estimated
Sat 04:55:00 PM 55.7777 -31.7954 259° West  Level Estimated
Sat 04:56:00 PM 55.7550 -31.9980 259° West  Level Estimated
Sat 04:57:00 PM 55.7320 -32.2004 259° West  Level Estimated
Sat 04:58:00 PM 55.7087 -32.4026 259° West  Level Estimated
Sat 04:59:00 PM 55.6851 -32.6045 258° West  Level Estimated
Sat 05:00:00 PM 55.6611 -32.8062 258° West  Level Estimated
Sat 05:01:00 PM 55.6368 -33.0076 258° West  Level Estimated
Sat 05:02:00 PM 55.6121 -33.2088 258° West  Level Estimated
Sat 05:03:00 PM 55.5872 -33.4097 258° West  Level Estimated
Sat 05:04:00 PM 55.5619 -33.6103 258° West  Level Estimated
Sat 05:05:00 PM 55.5362 -33.8107 257° West  Level Estimated
Sat 05:06:00 PM 55.5103 -34.0108 257° West  Level Estimated
Sat 05:07:00 PM 55.4840 -34.2107 257° West  Level Estimated
Sat 05:08:00 PM 55.4574 -34.4103 257° West  Level Estimated
Sat 05:09:00 PM 55.4305 -34.6096 257° West  Level Estimated
Sat 05:10:00 PM 55.4032 -34.8087 257° West  Level Estimated
Sat 05:11:00 PM 55.3757 -35.0075 256° West  Level Estimated
Sat 05:12:00 PM 55.3478 -35.2060 256° West  Level Estimated
Sat 05:13:00 PM 55.3195 -35.4042 256° West  Level Estimated
Sat 05:14:00 PM 55.2910 -35.6021 256° West  Level Estimated
Sat 05:15:00 PM 55.2621 -35.7998 256° West  Level Estimated
Sat 05:16:00 PM 55.2330 -35.9971 256° West  Level Estimated
Sat 05:17:00 PM 55.2035 -36.1942 255° West  Level Estimated
Sat 05:18:00 PM 55.1737 -36.3910 255° West  Level Estimated
Sat 05:19:00 PM 55.1435 -36.5875 255° West  Level Estimated
Sat 05:20:00 PM 55.1131 -36.7836 255° West  Level Estimated
Sat 05:21:00 PM 55.0823 -36.9795 255° West  Level Estimated
Sat 05:22:00 PM 55.0513 -37.1751 255° West  Level Estimated
Sat 05:23:00 PM 55.0199 -37.3704 254° West  Level Estimated
Sat 05:24:00 PM 54.9882 -37.5654 254° West  Level Estimated
Sat 05:25:00 PM 54.9562 -37.7600 254° West  Level Estimated
Sat 05:26:00 PM 54.9239 -37.9544 254° West  Level Estimated
Sat 05:27:00 PM 54.8912 -38.1484 254° West  Level Estimated
Sat 05:28:00 PM 54.8583 -38.3421 254° West  Level Estimated
Sat 05:29:00 PM 54.8250 -38.5355 253° West  Level Estimated
Sat 05:30:00 PM 54.7915 -38.7286 253° West  Level Estimated
Sat 05:31:00 PM 54.7576 -38.9214 253° West  Level Estimated
Sat 05:32:00 PM 54.7235 -39.1138 253° West  Level Estimated
Sat 05:33:00 PM 54.6890 -39.3059 253° West  Level Estimated
Sat 05:34:00 PM 54.6542 -39.4977 253° West  Level Estimated
Sat 05:35:00 PM 54.6192 -39.6891 253° West  Level Estimated
Sat 05:36:00 PM 54.5838 -39.8803 252° West  Level Estimated
Sat 05:37:00 PM 54.5481 -40.0710 252° West  Level Estimated
Sat 05:37:47 PM 56.0500 -41.6000 251° West 470 541 38,000  Level Gander Center
Sat 05:38:00 PM 54.5121 -40.2615 252° West  Level Estimated
Sat 05:38:47 PM 56.0500 -41.8500 270° West 470 541 38,000  Level Gander Center
Sat 05:39:00 PM 54.4759 -40.4516 252° West  Level Estimated
Sat 05:39:47 PM 56.0500 -42.0667 270° West 470 541 38,000  Level Gander Center
Sat 05:40:00 PM 54.4393 -40.6414 252° West  Level Estimated
Sat 05:40:47 PM 56.0667 -42.3000 277° West 470 541 38,000  Level Gander Center
Sat 05:41:00 PM 54.4024 -40.8308 252° West  Level Estimated
Sat 05:41:47 PM 56.0667 -42.5500 270° West 470 541 38,000  Level Gander Center
Sat 05:42:00 PM 54.3653 -41.0200 251° West  Level Estimated
Sat 05:42:47 PM 56.0667 -42.7667 270° West 470 541 38,000  Level Gander Center
Sat 05:43:00 PM 54.3278 -41.2087 251° West  Level Estimated
Sat 05:43:47 PM 56.0667 -43.0000 270° West 470 541 38,000  Level Gander Center
Sat 05:44:47 PM 56.0833 -43.2500 277° West 470 541 38,000  Level Gander Center
Sat 05:45:47 PM 56.0833 -43.5000 270° West 470 541 38,000  Level Gander Center
Sat 05:46:47 PM 56.0833 -43.7000 270° West 470 541 38,000  Level Gander Center
Sat 05:47:47 PM 56.0833 -43.9500 270° West 470 541 38,000  Level Gander Center
Sat 05:48:47 PM 56.0833 -44.1667 270° West 470 541 38,000  Level Gander Center
Sat 05:49:47 PM 56.0833 -44.4167 270° West 470 541 38,000  Level Gander Center
Sat 05:50:47 PM 56.1000 -44.6500 277° West 480 552 38,000  Level Gander Center
Sat 05:51:47 PM 56.1000 -44.8667 270° West 470 541 38,000  Level Gander Center
Sat 05:52:47 PM 56.1000 -45.1167 270° West 470 541 38,000  Level Gander Center
Sat 05:53:47 PM 56.0833 -45.3500 263° West 470 541 38,000  Level Gander Center
Sat 05:54:47 PM 56.0833 -45.5667 270° West 470 541 38,000  Level Gander Center
Sat 05:55:47 PM 56.1000 -45.8000 277° West 470 541 38,000  Level Gander Center
Sat 05:56:47 PM 56.1000 -46.0500 270° West 470 541 38,000  Level Gander Center
Sat 05:57:47 PM 56.0833 -46.2667 262° West 470 541 38,000  Level Gander Center
Sat 05:58:47 PM 56.0833 -46.5167 270° West 470 541 38,000  Level Gander Center
Sat 05:59:47 PM 56.0833 -46.7500 270° West 470 541 38,000  Level Gander Center
Sat 06:00:47 PM 56.0833 -46.9667 270° West 470 541 38,000  Level Gander Center
Sat 06:01:47 PM 56.0833 -47.2167 270° West 470 541 38,000  Level Gander Center
Sat 06:02:47 PM 56.0667 -47.4667 263° West 470 541 38,000  Level Gander Center
Sat 06:03:47 PM 56.0667 -47.6833 270° West 470 541 38,000  Level Gander Center
Sat 06:05:00 PM 55.9893 -47.9115 239° Southwest  Level Estimated
Sat 06:12:00 PM 55.5359 -49.2069 239° Southwest  Level Estimated
Sat 06:13:00 PM 55.4700 -49.3895 238° Southwest  Level Estimated
Sat 06:14:00 PM 55.4039 -49.5715 237° Southwest  Level Estimated
Sat 06:15:00 PM 55.3375 -49.7528 237° Southwest  Level Estimated
Sat 06:16:00 PM 55.2708 -49.9336 237° Southwest  Level Estimated
Sat 06:17:00 PM 55.2038 -50.1138 237° Southwest  Level Estimated
Sat 06:18:00 PM 55.1366 -50.2933 237° Southwest  Level Estimated
Sat 06:19:00 PM 55.0691 -50.4723 237° Southwest  Level Estimated
Sat 06:20:00 PM 55.0014 -50.6506 237° Southwest  Level Estimated
Sat 06:21:00 PM 54.9334 -50.8283 236° Southwest  Level Estimated
Sat 06:22:00 PM 54.8652 -51.0055 236° Southwest  Level Estimated
Sat 06:23:00 PM 54.7967 -51.1820 236° Southwest  Level Estimated
Sat 06:24:00 PM 54.7279 -51.3580 236° Southwest  Level Estimated
Sat 06:25:00 PM 54.6589 -51.5333 236° Southwest  Level Estimated
Sat 06:26:00 PM 54.5896 -51.7081 236° Southwest  Level Estimated
Sat 06:27:00 PM 54.5201 -51.8822 236° Southwest  Level Estimated
Sat 06:27:52 PM 55.2833 -53.1500 235° Southwest 490 564 38,000  Level Gander Center
Sat 06:28:00 PM 54.4503 -52.0558 235° Southwest  Level Estimated
Sat 06:28:52 PM 55.2333 -53.3333 245° Southwest 480 552 38,000  Level Gander Center
Sat 06:29:00 PM 54.3803 -52.2287 235° Southwest  Level Estimated
Sat 06:29:52 PM 55.1833 -53.5500 248° West 500 575 38,000  Level Gander Center
Sat 06:30:00 PM 54.3100 -52.4011 235° Southwest  Level Estimated
Sat 06:30:52 PM 55.1167 -53.7667 242° Southwest 480 552 38,000  Level Gander Center
Sat 06:31:00 PM 54.2395 -52.5729 235° Southwest  Level Estimated
Sat 06:32:00 PM 54.1688 -52.7441 235° Southwest  Level Estimated
Sat 06:32:00 PM 55.0261 -53.9518 230° Southwest  Level FlightAware Approximate
Sat 06:33:00 PM 54.0978 -52.9147 235° Southwest  Level Estimated
Sat 06:35:52 PM 54.8833 -54.8500 230° Southwest 480 552 38,000  Level Gander Center
Sat 06:36:52 PM 54.8167 -55.0667 242° Southwest 480 552 38,000  Level Gander Center
Sat 06:37:52 PM 54.7500 -55.2833 242° Southwest 480 552 38,000  Level Gander Center
Sat 06:38:52 PM 54.7167 -55.4667 253° West 480 552 38,000  Level Gander Center
Sat 06:39:00 PM 54.4603 -55.0766 229° Southwest  Level FlightAware Approximate
Sat 06:39:52 PM 54.6333 -55.7000 238° Southwest 480 552 38,000  Level Gander Center
Sat 06:40:00 PM 54.3801 -55.2388 230° Southwest  Level Estimated
Sat 06:40:52 PM 54.5833 -55.8833 245° Southwest 480 552 38,000  Level Gander Center
Sat 06:41:00 PM 54.3030 -55.3939 230° Southwest  Level Estimated
Sat 06:41:52 PM 54.5000 -56.1000 237° Southwest 490 564 38,000  Level Gander Center
Sat 06:42:52 PM 54.4333 -56.2833 238° Southwest 490 564 38,000  Level Gander Center
Sat 06:43:52 PM 54.3333 -56.4667 227° Southwest 480 552 38,000  Level Gander Center
Sat 06:44:52 PM 54.2667 -56.6500 238° Southwest 480 552 38,000  Level Gander Center
Sat 06:45:52 PM 54.1833 -56.8167 230° Southwest 480 552 38,000  Level Gander Center
Sat 06:46:52 PM 54.1000 -57.0000 232° Southwest 480 552 38,000  Level Gander Center
Sat 06:47:52 PM 54.0333 -57.1833 238° Southwest 480 552 38,000  Level Gander Center
Sat 06:48:52 PM 53.9500 -57.3667 232° Southwest 470 541 38,000  Level Gander Center
Sat 06:49:52 PM 53.8667 -57.5333 230° Southwest 470 541 38,000  Level Gander Center
Sat 06:50:52 PM 53.8000 -57.7500 243° Southwest 470 541 38,000  Level Gander Center
Sat 06:51:52 PM 53.7167 -57.9000 227° Southwest 470 541 38,000  Level Gander Center
Sat 06:52:52 PM 53.6333 -58.0667 230° Southwest 470 541 38,000  Level Gander Center
Sat 06:53:52 PM 53.5500 -58.2500 233° Southwest 470 541 38,000  Level Gander Center
Sat 06:54:52 PM 53.4500 -58.3833 218° Southwest 470 541 38,000  Level Gander Center
Sat 06:55:52 PM 53.3667 -58.5667 233° Southwest 470 541 38,000  Level Gander Center
Sat 06:56:52 PM 53.2667 -58.7167 222° Southwest 470 541 38,000  Level Gander Center
Sat 06:57:52 PM 53.1667 -58.8833 225° Southwest 470 541 38,000  Level Gander Center
Sat 06:59:06 PM 53.0667 -59.0833 230° Southwest 470 541 38,000  Level Moncton Center
Sat 06:59:52 PM 53.0000 -59.2000 227° Southwest 470 541 38,000  Level Gander Center
Sat 07:00:52 PM 52.9000 -59.3667 225° Southwest 470 541 38,000  Level Gander Center
Sat 07:01:52 PM 52.8167 -59.5167 227° Southwest 470 541 38,000  Level Gander Center
Sat 07:02:52 PM 52.7167 -59.6500 219° Southwest 470 541 38,000  Level Gander Center
Sat 07:03:52 PM 52.6333 -59.8167 231° Southwest 470 541 38,000  Level Gander Center
Sat 07:04:52 PM 52.5333 -59.9667 222° Southwest 470 541 38,000  Level Gander Center
Sat 07:05:52 PM 52.4333 -60.1333 225° Southwest 470 541 38,000  Level Gander Center
Sat 07:06:52 PM 52.3500 -60.2667 224° Southwest 470 541 38,000  Level Gander Center
Sat 07:07:52 PM 52.2500 -60.4333 226° Southwest 460 529 38,000  Level Gander Center
Sat 07:09:06 PM 52.1500 -60.6000 226° Southwest 470 541 38,000  Level Moncton Center
Sat 07:09:52 PM 52.0667 -60.7333 225° Southwest 470 541 38,000  Level Gander Center
Sat 07:10:52 PM 51.9833 -60.8667 225° Southwest 470 541 38,000  Level Gander Center
Sat 07:11:52 PM 51.8833 -61.0167 223° Southwest 460 529 38,000  Level Gander Center
Sat 07:12:52 PM 51.8000 -61.1500 225° Southwest 460 529 38,000  Level Gander Center
Sat 07:14:06 PM 51.7000 -61.3500 231° Southwest 460 529 38,000  Level Moncton Center
Sat 07:14:52 PM 51.6167 -61.4500 217° Southwest 460 529 38,000  Level Gander Center
Sat 07:15:52 PM 51.5167 -61.5833 220° Southwest 460 529 38,000  Level Gander Center
Sat 07:16:52 PM 51.4167 -61.7333 223° Southwest 460 529 38,000  Level Gander Center
Sat 07:17:52 PM 51.3333 -61.8667 225° Southwest 460 529 38,000  Level Gander Center
Sat 07:18:52 PM 51.2333 -62.0333 226° Southwest 460 529 38,000  Level Gander Center
Sat 07:19:52 PM 51.1500 -62.1667 225° Southwest 470 541 38,000  Level Gander Center
Sat 07:20:52 PM 51.0500 -62.3167 223° Southwest 460 529 38,000  Level Gander Center
Sat 07:21:52 PM 50.9667 -62.4500 225° Southwest 460 529 38,000  Level Gander Center
Sat 07:22:52 PM 50.8667 -62.5833 220° Southwest 450 518 38,000  Level Gander Center
Sat 07:23:52 PM 50.7833 -62.7167 225° Southwest 460 529 38,000  Level Gander Center
Sat 07:24:52 PM 50.6833 -62.8667 224° Southwest 460 529 38,000  Level Gander Center
Sat 07:25:52 PM 50.5833 -63.0000 220° Southwest 450 518 38,000  Level Gander Center
Sat 07:26:52 PM 50.4833 -63.1500 224° Southwest 460 529 38,000  Level Gander Center
Sat 07:27:52 PM 50.4000 -63.2833 226° Southwest 450 518 38,000  Level Gander Center
Sat 07:28:52 PM 50.3167 -63.4000 222° Southwest 460 529 38,000  Level Gander Center
Sat 07:29:52 PM 50.2167 -63.5333 220° Southwest 460 529 38,000  Level Gander Center
Sat 07:30:52 PM 50.1333 -63.6833 229° Southwest 460 529 38,000  Level Gander Center
Sat 07:31:52 PM 50.0167 -63.8000 213° Southwest 460 529 38,000  Level Gander Center
Sat 07:32:52 PM 49.9333 -63.9333 226° Southwest 450 518 38,000  Level Gander Center
Sat 07:33:52 PM 49.8333 -64.0833 224° Southwest 460 529 38,000  Level Gander Center
Sat 07:34:52 PM 49.7500 -64.2000 222° Southwest 450 518 38,000  Level Gander Center
Sat 07:35:52 PM 49.6667 -64.3333 226° Southwest 460 529 38,000  Level Gander Center
Sat 07:36:52 PM 49.5500 -64.4500 213° Southwest 460 529 38,000  Level Gander Center
Sat 07:37:52 PM 49.4667 -64.6000 230° Southwest 450 518 38,000  Level Gander Center
Sat 07:38:52 PM 49.3667 -64.7167 217° Southwest 460 529 38,000  Level Gander Center
Sat 07:39:52 PM 49.2833 -64.8500 226° Southwest 450 518 38,000  Level Gander Center
Sat 07:40:52 PM 49.1667 -64.9833 217° Southwest 450 518 38,000  Level Gander Center
Sat 07:41:52 PM 49.0833 -65.1167 226° Southwest 450 518 38,000  Level Gander Center
Sat 07:42:52 PM 49.0000 -65.2333 223° Southwest 450 518 38,000  Level Gander Center
Sat 07:43:52 PM 48.9000 -65.3500 218° Southwest 450 518 38,000  Level Gander Center
Sat 07:45:06 PM 48.7833 -65.4833 217° Southwest 440 506 38,000  Level Moncton Center
Sat 07:46:06 PM 48.6833 -65.6333 225° Southwest 440 506 38,000  Level Moncton Center
Sat 07:47:06 PM 48.6000 -65.7333 218° Southwest 440 506 38,000  Level Moncton Center
Sat 07:48:06 PM 48.5000 -65.8667 221° Southwest 440 506 38,000  Level Moncton Center
Sat 07:49:06 PM 48.4167 -65.9833 223° Southwest 440 506 38,000  Level Moncton Center
Sat 07:50:06 PM 48.3167 -66.1167 222° Southwest 440 506 38,000  Level Moncton Center
Sat 07:51:06 PM 48.2167 -66.2333 218° Southwest 440 506 38,000  Level Moncton Center
Sat 07:52:06 PM 48.1333 -66.3333 219° Southwest 430 495 38,000  Level Moncton Center
Sat 07:53:06 PM 48.0333 -66.4500 218° Southwest 430 495 38,000  Level Moncton Center
Sat 07:54:06 PM 47.9500 -66.5667 223° Southwest 440 506 38,000  Level Moncton Center
Sat 07:55:06 PM 47.8667 -66.7000 227° Southwest 430 495 38,000  Level Moncton Center
Sat 07:56:06 PM 47.7500 -66.8167 214° Southwest 420 483 38,000  Level Moncton Center
Sat 07:57:06 PM 47.6667 -66.9167 219° Southwest 430 495 38,000  Level Moncton Center
Sat 07:58:06 PM 47.5833 -67.0333 223° Southwest 430 495 38,000  Level Moncton Center
Sat 07:59:06 PM 47.5000 -67.1500 223° Southwest 420 483 38,000  Level Moncton Center
Sat 08:00:06 PM 47.4000 -67.2667 218° Southwest 430 495 38,000  Level Moncton Center
Sat 08:01:06 PM 47.3000 -67.3667 214° Southwest 440 506 38,000 -66 Level Moncton Center
Sat 08:01:37 PM 47.2644 -67.4033 215° Southwest 440 506 37,900  Descending Boston Center
Sat 08:06:52 PM 46.7230 -67.8630 215° Southwest 420 483 38,000 17 Climbing FlightAware ADS-B
Sat 08:07:27 PM 46.6690 -67.9090 210° Southwest 421 484 38,000  Level FlightAware ADS-B
Sat 08:08:47 PM 46.5380 -68.0190 210° Southwest 423 487 38,000  Level FlightAware ADS-B
Sat 08:09:27 PM 46.4570 -68.0870 210° Southwest 431 496 38,000  Level FlightAware ADS-B
Sat 08:10:12 PM 46.3800 -68.1510 210° Southwest 432 497 38,000  Level FlightAware ADS-B
Sat 08:10:52 PM 46.3090 -68.2090 209° Southwest 438 504 38,000  Level FlightAware ADS-B
Sat 08:11:32 PM 46.2390 -68.2670 210° Southwest 440 506 38,000  Level FlightAware ADS-B
Sat 08:12:17 PM 46.1600 -68.3330 210° Southwest 443 510 38,000  Level FlightAware ADS-B
Sat 08:12:57 PM 46.0890 -68.3910 210° Southwest 443 510 38,000  Level FlightAware ADS-B
Sat 08:13:42 PM 46.0090 -68.4570 210° Southwest 442 509 38,000  Level FlightAware ADS-B
Sat 08:14:22 PM 45.9460 -68.5090 210° Southwest 440 506 38,000  Level FlightAware ADS-B
Sat 08:15:02 PM 45.8680 -68.5720 209° Southwest 437 503 38,000  Level FlightAware ADS-B
Sat 08:15:47 PM 45.7900 -68.6360 210° Southwest 436 502 38,000  Level FlightAware ADS-B
Sat 08:16:27 PM 45.7200 -68.6920 209° Southwest 434 499 38,000  Level FlightAware ADS-B
Sat 08:17:12 PM 45.6420 -68.7550 209° Southwest 432 497 38,000  Level FlightAware ADS-B
Sat 08:17:52 PM 45.5720 -68.8120 210° Southwest 432 497 38,000  Level FlightAware ADS-B
Sat 08:18:32 PM 45.5030 -68.8670 209° Southwest 430 495 38,000  Level FlightAware ADS-B
Sat 08:19:17 PM 45.4260 -68.9290 209° Southwest 429 494 38,000  Level FlightAware ADS-B
Sat 08:19:57 PM 45.3560 -68.9850 209° Southwest 429 494 38,000  Level FlightAware ADS-B
Sat 08:20:42 PM 45.2790 -69.0460 209° Southwest 428 493 38,000  Level FlightAware ADS-B
Sat 08:21:22 PM 45.2110 -69.1010 210° Southwest 426 490 38,000  Level FlightAware ADS-B
Sat 08:22:07 PM 45.1330 -69.1620 209° Southwest 425 489 38,000  Level FlightAware ADS-B
Sat 08:22:47 PM 45.0650 -69.2160 209° Southwest 425 489 38,000  Level FlightAware ADS-B
Sat 08:23:27 PM 44.9980 -69.2680 209° Southwest 423 487 38,000  Level FlightAware ADS-B
Sat 08:24:12 PM 44.9200 -69.3300 209° Southwest 422 486 38,000  Level FlightAware ADS-B
Sat 08:24:52 PM 44.8520 -69.3820 208° Southwest 422 486 38,000  Level FlightAware ADS-B
Sat 08:25:37 PM 44.7800 -69.4380 209° Southwest 422 486 38,000  Level FlightAware ADS-B
Sat 08:26:17 PM 44.7070 -69.4960 209° Southwest 420 483 38,000  Level FlightAware ADS-B
Sat 08:26:57 PM 44.6440 -69.5450 209° Southwest 419 482 38,000  Level FlightAware ADS-B
Sat 08:27:42 PM 44.5720 -69.6000 209° Southwest 418 481 38,000  Level FlightAware ADS-B
Sat 08:28:22 PM 44.4980 -69.6570 209° Southwest 415 478 38,000  Level FlightAware ADS-B
Sat 08:29:07 PM 44.4210 -69.7160 209° Southwest 414 476 38,000  Level FlightAware ADS-B
Sat 08:29:47 PM 44.3540 -69.7680 209° Southwest 413 475 38,000  Level FlightAware ADS-B
Sat 08:30:27 PM 44.2870 -69.8190 209° Southwest 410 472 38,000  Level FlightAware ADS-B
Sat 08:31:12 PM 44.2130 -69.8750 208° Southwest 409 471 38,000  Level FlightAware ADS-B
Sat 08:31:52 PM 44.1470 -69.9250 209° Southwest 408 470 38,000  Level FlightAware ADS-B
Sat 08:32:32 PM 44.0810 -69.9760 209° Southwest 406 467 38,000  Level FlightAware ADS-B
Sat 08:33:17 PM 44.0050 -70.0330 208° Southwest 405 466 38,000  Level FlightAware ADS-B
Sat 08:33:57 PM 43.9400 -70.0820 208° Southwest 404 465 38,000  Level FlightAware ADS-B
Sat 08:34:42 PM 43.8670 -70.1370 209° Southwest 403 464 38,000  Level FlightAware ADS-B
Sat 08:35:22 PM 43.8030 -70.1850 208° Southwest 401 461 38,000  Level FlightAware ADS-B
Sat 08:36:02 PM 43.7370 -70.2350 209° Southwest 401 461 38,000  Level FlightAware ADS-B
Sat 08:36:47 PM 43.6610 -70.2910 208° Southwest 401 461 38,000  Level FlightAware ADS-B
Sat 08:37:27 PM 43.5960 -70.3400 209° Southwest 400 460 38,000  Level FlightAware ADS-B
Sat 08:38:07 PM 43.5340 -70.3860 208° Southwest 400 460 38,000  Level FlightAware ADS-B
Sat 08:38:52 PM 43.4610 -70.4400 208° Southwest 398 458 38,000  Level FlightAware ADS-B
Sat 08:39:32 PM 43.3950 -70.4890 208° Southwest 398 458 38,000  Level FlightAware ADS-B
Sat 08:40:17 PM 43.3220 -70.5430 208° Southwest 397 457 38,000  Level FlightAware ADS-B
Sat 08:40:57 PM 43.2570 -70.5910 208° Southwest 396 456 38,000  Level FlightAware ADS-B
Sat 08:41:37 PM 43.1930 -70.6370 208° Southwest 396 456 38,000  Level FlightAware ADS-B
Sat 08:42:22 PM 43.1200 -70.6900 208° Southwest 398 458 38,000  Level FlightAware ADS-B
Sat 08:43:02 PM 43.0550 -70.7380 208° Southwest 399 459 38,000  Level FlightAware ADS-B
Sat 08:43:42 PM 42.9960 -70.7950 215° Southwest 389 448 38,000  Level FlightAware ADS-B
Sat 08:44:27 PM 42.9300 -70.8640 217° Southwest 389 448 38,000  Level FlightAware ADS-B
Sat 08:45:07 PM 42.8710 -70.9220 216° Southwest 390 449 38,000  Level FlightAware ADS-B
Sat 08:45:47 PM 42.8140 -70.9770 215° Southwest 390 449 38,000  Level FlightAware ADS-B
Sat 08:46:32 PM 42.7490 -71.0420 216° Southwest 390 449 38,000  Level FlightAware ADS-B
Sat 08:47:12 PM 42.6910 -71.1000 216° Southwest 391 450 38,000  Level FlightAware ADS-B
Sat 08:47:57 PM 42.6250 -71.1650 216° Southwest 392 451 38,000  Level FlightAware ADS-B
Sat 08:48:37 PM 42.5650 -71.2250 216° Southwest 394 453 38,000  Level FlightAware ADS-B
Sat 08:49:22 PM 42.5010 -71.2890 216° Southwest 396 456 38,000  Level FlightAware ADS-B
Sat 08:50:02 PM 42.4410 -71.3480 216° Southwest 397 457 38,000  Level FlightAware ADS-B
Sat 08:50:47 PM 42.3740 -71.4150 216° Southwest 395 455 38,000  Level FlightAware ADS-B
Sat 08:51:32 PM 42.3100 -71.4780 216° Southwest 385 443 38,000 -282 Level FlightAware ADS-B
Sat 08:52:12 PM 42.2530 -71.5340 216° Southwest 373 429 37,600 -1,050 Descending FlightAware ADS-B
Sat 08:52:52 PM 42.1990 -71.5870 216° Southwest 376 433 36,600 -1,575 Descending FlightAware ADS-B
Sat 08:53:32 PM 42.1390 -71.6450 216° Southwest 379 436 35,500 -1,271 Descending FlightAware ADS-B
Sat 08:54:17 PM 42.0790 -71.7040 216° Southwest 361 415 34,800 -1,341 Descending FlightAware ADS-B
Sat 08:54:57 PM 42.0250 -71.7560 216° Southwest 360 414 33,600 -1,694 Descending FlightAware ADS-B
Sat 08:55:42 PM 41.9630 -71.8160 216° Southwest 353 406 32,400 -1,835 Descending FlightAware ADS-B
Sat 08:56:22 PM 41.9110 -71.8670 216° Southwest 353 406 31,000 -1,739 Descending FlightAware ADS-B
Sat 08:59:47 PM 41.6380 -72.1300 216° Southwest 358 412 25,300 -957 Descending FlightAware ADS-B
Sat 09:03:47 PM 41.3170 -72.4350 216° Southwest 359 413 23,900 -621 Descending FlightAware ADS-B
Sat 09:04:27 PM 41.2620 -72.4870 215° Southwest 354 407 22,400 -2,400 Descending FlightAware ADS-B
Sat 09:05:12 PM 41.2010 -72.5440 215° Southwest 351 404 20,500 -1,341 Descending FlightAware ADS-B
Sat 09:05:52 PM 41.1560 -72.5860 215° Southwest 351 404 20,500 -1,260 Level FlightAware ADS-B
Sat 09:06:52 PM 41.0690 -72.6680 215° Southwest 341 392 18,400 -1,260 Descending FlightAware ADS-B
Sat 09:07:32 PM 41.0250 -72.7090 215° Southwest 341 392 18,400 -4,160 Level FlightAware ADS-B
Sat 09:08:07 PM 40.9730 -72.7580 215° Southwest 300 345 13,200 -4,333 Descending FlightAware ADS-B
Sat 09:09:02 PM 40.9120 -72.8160 216° Southwest 283 326 11,900 -933 Descending FlightAware ADS-B
Sat 09:09:37 PM 40.8790 -72.8470 215° Southwest 279 321 11,800 -1,350 Descending FlightAware ADS-B
Sat 09:10:22 PM 40.8310 -72.8940 217° Southwest 271 312 10,100 -2,000 Descending FlightAware ADS-B
Sat 09:10:52 PM 40.7990 -72.9240 215° Southwest 274 315 9,300 -1,200 Descending FlightAware ADS-B
Sat 09:11:22 PM 40.7700 -72.9530 217° Southwest 271 312 8,900 -900 Descending FlightAware ADS-B
Sat 09:11:32 PM 40.7620 -72.9660 231° Southwest 257 296 8,700 -1,200 Descending FlightAware ADS-B
Sat 09:11:47 PM 40.7550 -72.9860 245° Southwest 248 285 8,400 -1,333 Descending FlightAware ADS-B
Sat 09:12:17 PM 40.7440 -73.0300 252° West 243 280 7,700 -1,418 Descending FlightAware ADS-B
Sat 09:12:42 PM 40.7340 -73.0640 249° West 243 280 7,100 -1,418 Descending FlightAware ADS-B
Sat 09:13:12 PM 40.7240 -73.1070 253° West 238 274 6,400 -1,500 Descending FlightAware ADS-B
Sat 09:13:42 PM 40.7140 -73.1490 253° West 244 281 5,600 -1,527 Descending FlightAware ADS-B
Sat 09:14:07 PM 40.7060 -73.1860 254° West 251 289 5,000 -655 Descending FlightAware ADS-B
Sat 09:14:37 PM 40.6970 -73.2260 253° West 225 259 5,000  Level FlightAware ADS-B
Sat 09:15:17 PM 40.7100 -73.2730 290° West 207 238 5,000 -86 Level FlightAware ADS-B
Sat 09:15:47 PM 40.7290 -73.3020 311° West 206 237 4,900 -545 Descending FlightAware ADS-B
Sat 09:16:12 PM 40.7430 -73.3260 308° West 206 237 4,500 -1,080 Descending FlightAware ADS-B
Sat 09:16:37 PM 40.7580 -73.3500 310° West 207 238 4,000 -500 Descending FlightAware ADS-B
Sat 09:17:12 PM 40.7780 -73.3850 307° West 206 237 4,000  Level FlightAware ADS-B
Sat 09:17:32 PM 40.7900 -73.4050 308° West 201 231 4,000  Level FlightAware ADS-B
Sat 09:18:07 PM 40.8070 -73.4330 309° West 175 201 4,000 -400 Level FlightAware ADS-B
Sat 09:18:32 PM 40.8210 -73.4560 309° West 170 196 3,600 -982 Descending FlightAware ADS-B
Sat 09:19:02 PM 40.8340 -73.4790 307° West 168 193 3,100 -1,067 Descending FlightAware ADS-B
Sat 09:19:17 PM 40.8380 -73.4950 288° West 169 194 2,800 -600 Descending FlightAware ADS-B
Sat 09:19:42 PM 40.8290 -73.5200 245° Southwest 172 198 2,700 -150 Descending FlightAware ADS-B
Sat 09:19:57 PM 40.8240 -73.5320 241° Southwest 175 201 2,700  Level FlightAware ADS-B
Sat 09:20:27 PM 40.8120 -73.5590 240° Southwest 159 183 2,700  Level FlightAware ADS-B
Sat 09:20:52 PM 40.8030 -73.5810 242° Southwest 159 183 2,700  Level FlightAware ADS-B
Sat 09:21:22 PM 40.7900 -73.6030 232° Southwest 166 191 2,700  Level FlightAware ADS-B
Sat 09:21:52 PM 40.7700 -73.6230 217° Southwest 166 191 2,700 -150 Level FlightAware ADS-B
Sat 09:22:02 PM 40.7650 -73.6290 222° Southwest 167 192 2,600 -450 Descending FlightAware ADS-B
Sat 09:22:32 PM 40.7480 -73.6480 220° Southwest 162 186 2,400 -500 Descending FlightAware ADS-B
Sat 09:23:02 PM 40.7330 -73.6700 228° Southwest 157 181 2,100 -655 Descending FlightAware ADS-B
Sat 09:23:27 PM 40.7210 -73.6880 229° Southwest 156 180 1,800 -720 Descending FlightAware ADS-B

Login

Don't have an account? Register now (free) for customized features, flight alerts, and more!